createdAt,value
2023-04-16T00:00:15.395Z,20.63
2023-04-16T00:05:05.175Z,19.03
2023-04-16T00:09:50.659Z,20.87
2023-04-16T00:14:43.789Z,21.83
2023-04-16T00:19:27.365Z,21.33
2023-04-16T00:24:17.761Z,19.53
2023-04-16T00:29:03.181Z,19.37
2023-04-16T00:33:50.913Z,21.13
2023-04-16T00:38:40.619Z,22.27
2023-04-16T00:43:28.165Z,19.63
2023-04-16T00:48:18.615Z,18.93
2023-04-16T00:53:04.226Z,19.80
2023-04-16T00:57:53.920Z,23.57
2023-04-16T01:02:42.770Z,22.77
2023-04-16T01:07:29.161Z,19.50
2023-04-16T01:12:17.186Z,20.23
2023-04-16T01:17:04.351Z,21.60
2023-04-16T01:21:54.730Z,24.53
2023-04-16T01:26:41.369Z,21.63
2023-04-16T01:31:25.743Z,18.63
2023-04-16T01:36:32.140Z,20.17
2023-04-16T01:41:20.643Z,21.17
2023-04-16T01:46:24.173Z,24.97
2023-04-16T01:51:13.722Z,22.27
2023-04-16T01:56:04.664Z,20.50
2023-04-16T02:00:49.596Z,20.37
2023-04-16T02:05:35.186Z,18.53
2023-04-16T02:10:23.979Z,20.73
2023-04-16T02:15:13.432Z,22.37
2023-04-16T02:20:06.057Z,19.77
2023-04-16T02:25:01.577Z,17.43
2023-04-16T02:29:55.651Z,20.17
2023-04-16T02:34:40.363Z,19.37
2023-04-16T02:39:58.510Z,18.20
2023-04-16T02:44:47.578Z,20.43
2023-04-16T02:49:37.088Z,21.93
2023-04-16T02:54:23.900Z,23.77
2023-04-16T02:59:13.747Z,20.23
2023-04-16T03:04:01.310Z,21.07
2023-04-16T03:08:47.916Z,19.43
2023-04-16T03:13:36.456Z,22.80
2023-04-16T03:18:25.611Z,20.87
2023-04-16T03:23:10.973Z,19.63
2023-04-16T03:28:01.042Z,19.43
2023-04-16T03:32:46.650Z,22.47
2023-04-16T03:37:34.982Z,18.93
2023-04-16T03:42:28.405Z,18.73
2023-04-16T03:47:32.396Z,19.23
2023-04-16T03:52:29.578Z,18.90
2023-04-16T03:57:21.124Z,23.97
2023-04-16T04:02:08.304Z,22.73
2023-04-16T04:06:54.842Z,26.30
2023-04-16T04:11:45.762Z,22.07
2023-04-16T04:16:34.534Z,20.90
2023-04-16T04:21:18.490Z,20.87
2023-04-16T04:26:11.732Z,24.07
2023-04-16T04:30:57.007Z,21.17
2023-04-16T04:35:45.327Z,21.00
2023-04-16T04:40:31.800Z,21.60
2023-04-16T04:45:18.590Z,23.23
2023-04-16T04:50:09.292Z,24.20
2023-04-16T04:54:58.439Z,22.27
2023-04-16T04:59:43.489Z,22.00
2023-04-16T05:04:33.108Z,19.83
2023-04-16T05:09:20.295Z,20.77
2023-04-16T05:14:09.255Z,20.23
2023-04-16T05:18:58.080Z,22.70
2023-04-16T05:23:43.421Z,22.23
2023-04-16T05:28:33.025Z,22.73
2023-04-16T05:33:20.932Z,22.00
2023-04-16T05:38:07.466Z,18.80
2023-04-16T05:42:54.682Z,20.53
2023-04-16T05:47:44.884Z,20.60
2023-04-16T05:52:50.829Z,19.87
2023-04-16T05:57:37.714Z,16.80
2023-04-16T06:02:22.703Z,18.60
2023-04-16T06:07:12.590Z,19.30
2023-04-16T06:12:01.489Z,19.17
2023-04-16T06:16:48.419Z,20.20
2023-04-16T06:21:35.221Z,21.23
2023-04-16T06:26:25.814Z,18.37
2023-04-16T06:31:10.859Z,17.53
2023-04-16T06:35:59.984Z,18.37
2023-04-16T06:40:47.570Z,18.10
2023-04-16T06:45:35.052Z,16.80
2023-04-16T06:50:28.710Z,17.73
2023-04-16T06:55:13.044Z,17.13
2023-04-16T07:00:02.667Z,17.17
2023-04-16T07:04:47.403Z,16.67
2023-04-16T07:09:36.017Z,15.23
2023-04-16T07:14:22.622Z,14.07
2023-04-16T07:19:11.962Z,14.13
2023-04-16T07:23:59.697Z,14.10
2023-04-16T07:29:07.889Z,12.80
2023-04-16T07:33:51.626Z,12.33
2023-04-16T07:38:40.199Z,11.33
2023-04-16T07:43:26.973Z,11.53
2023-04-16T07:48:30.844Z,11.57
2023-04-16T07:53:23.529Z,11.53
2023-04-16T07:58:09.851Z,11.43
2023-04-16T08:02:57.403Z,10.77
2023-04-16T08:08:01.271Z,12.33
2023-04-16T08:12:48.144Z,11.67
2023-04-16T08:17:38.106Z,11.80
2023-04-16T08:22:24.920Z,12.10
2023-04-16T08:27:19.179Z,12.23
2023-04-16T08:32:15.375Z,14.30
2023-04-16T08:37:03.879Z,13.27
2023-04-16T08:41:55.336Z,12.67
2023-04-16T08:46:42.817Z,11.77
2023-04-16T08:51:31.190Z,11.13
2023-04-16T08:56:16.299Z,12.23
2023-04-16T09:01:03.974Z,9.50
2023-04-16T09:05:51.704Z,11.87
2023-04-16T09:10:41.910Z,12.03
2023-04-16T09:15:27.578Z,10.80
2023-04-16T09:20:36.737Z,9.80
2023-04-16T09:25:22.671Z,11.83
2023-04-16T09:30:27.578Z,10.73
2023-04-16T09:35:11.066Z,9.90
2023-04-16T09:40:03.921Z,10.10
2023-04-16T09:44:52.364Z,9.00
2023-04-16T09:49:37.134Z,9.30
2023-04-16T09:54:21.447Z,9.97
2023-04-16T09:59:15.600Z,9.33
2023-04-16T10:04:00.944Z,7.20
2023-04-16T10:08:45.358Z,7.30
2023-04-16T10:13:30.997Z,8.10
2023-04-16T10:18:15.828Z,8.43
2023-04-16T10:23:01.034Z,7.07
2023-04-16T10:27:49.743Z,9.30
2023-04-16T10:32:40.098Z,7.23
2023-04-16T10:37:31.481Z,8.70
2023-04-16T10:42:17.127Z,8.33
2023-04-16T10:47:00.985Z,6.37
2023-04-16T10:51:55.241Z,4.60
2023-04-16T10:56:39.502Z,6.40
2023-04-16T11:01:32.872Z,7.40
2023-04-16T11:06:28.384Z,7.00
2023-04-16T11:11:20.362Z,7.70
2023-04-16T11:16:07.617Z,8.67
2023-04-16T11:20:53.029Z,7.77
2023-04-16T11:25:39.721Z,7.60
2023-04-16T11:30:30.078Z,6.77
2023-04-16T11:35:15.991Z,6.40
2023-04-16T11:40:10.610Z,6.07
2023-04-16T11:45:05.382Z,5.37
2023-04-16T11:49:55.589Z,4.43
2023-04-16T11:54:41.661Z,4.77
2023-04-16T11:59:33.404Z,4.67
2023-04-16T12:04:20.619Z,4.30
2023-04-16T12:09:25.514Z,4.33
2023-04-16T12:14:12.656Z,3.93
2023-04-16T12:19:05.352Z,4.43
2023-04-16T12:23:54.869Z,6.50
2023-04-16T12:28:39.370Z,4.73
2023-04-16T12:33:25.827Z,4.27
2023-04-16T12:38:15.297Z,4.90
2023-04-16T12:43:01.395Z,5.43
2023-04-16T12:47:52.710Z,5.60
2023-04-16T12:52:37.174Z,5.17
2023-04-16T12:57:28.981Z,5.47
2023-04-16T13:02:12.478Z,5.93
2023-04-16T13:07:02.036Z,5.67
2023-04-16T13:11:49.746Z,6.30
2023-04-16T13:16:38.979Z,5.50
2023-04-16T13:21:25.945Z,5.00
2023-04-16T13:26:16.340Z,5.00
2023-04-16T13:31:05.663Z,4.90
2023-04-16T13:35:51.238Z,5.77
2023-04-16T13:40:38.216Z,5.47
2023-04-16T13:45:28.218Z,5.30
2023-04-16T13:50:13.764Z,6.73
2023-04-16T13:55:02.683Z,6.30
2023-04-16T13:59:49.134Z,6.30
2023-04-16T14:04:39.033Z,5.73
2023-04-16T14:09:24.429Z,5.60
2023-04-16T14:14:13.989Z,6.37
2023-04-16T14:19:03.259Z,5.87
2023-04-16T14:23:48.524Z,5.90
2023-04-16T14:28:38.170Z,5.23
2023-04-16T14:33:39.386Z,4.93
2023-04-16T14:38:27.674Z,5.77
2023-04-16T14:43:16.815Z,5.30
2023-04-16T14:48:06.815Z,4.60
2023-04-16T14:53:11.053Z,4.87
2023-04-16T14:57:58.184Z,4.47
2023-04-16T15:02:45.018Z,3.67
2023-04-16T15:07:34.556Z,4.73
2023-04-16T15:12:21.797Z,3.83
2023-04-16T15:17:17.955Z,4.63
2023-04-16T15:22:14.856Z,3.77
2023-04-16T15:27:02.282Z,3.23
2023-04-16T15:31:49.581Z,3.47
2023-04-16T15:36:39.540Z,3.00
2023-04-16T15:41:26.014Z,3.10
2023-04-16T15:46:12.790Z,2.93
2023-04-16T15:51:00.560Z,3.60
2023-04-16T15:55:50.629Z,2.90
2023-04-16T16:00:37.514Z,3.27
2023-04-16T16:05:26.273Z,2.97
2023-04-16T16:10:14.411Z,4.33
2023-04-16T16:15:02.256Z,4.13
2023-04-16T16:19:49.713Z,4.13
2023-04-16T16:24:39.256Z,4.10
2023-04-16T16:29:27.025Z,4.30
2023-04-16T16:34:20.860Z,5.10
2023-04-16T16:39:16.823Z,4.30
2023-04-16T16:44:20.747Z,5.00
2023-04-16T16:49:09.820Z,4.00
2023-04-16T16:54:00.352Z,3.43
2023-04-16T16:58:46.763Z,4.17
2023-04-16T17:03:32.370Z,4.37
2023-04-16T17:08:19.528Z,5.53
2023-04-16T17:13:08.731Z,6.23
2023-04-16T17:17:57.196Z,7.07
2023-04-16T17:22:47.121Z,8.03
2023-04-16T17:27:34.962Z,7.93
2023-04-16T17:32:20.224Z,10.47
2023-04-16T17:37:09.973Z,10.13
2023-04-16T17:41:58.692Z,12.33
2023-04-16T17:46:46.661Z,12.30
2023-04-16T17:51:32.519Z,15.57
2023-04-16T17:56:21.925Z,16.40
2023-04-16T18:01:11.722Z,15.87
2023-04-16T18:05:57.648Z,16.10
2023-04-16T18:10:46.078Z,16.33
2023-04-16T18:15:32.601Z,18.77
2023-04-16T18:20:27.382Z,16.20
2023-04-16T18:25:33.907Z,16.67
2023-04-16T18:30:28.667Z,17.63
2023-04-16T18:35:18.611Z,13.27
2023-04-16T18:40:07.214Z,11.60
2023-04-16T18:44:54.511Z,10.60
2023-04-16T18:49:45.703Z,10.13
2023-04-16T18:54:29.327Z,10.23
2023-04-16T18:59:16.266Z,7.20
2023-04-16T19:04:08.769Z,9.00
2023-04-16T19:08:54.401Z,9.43
2023-04-16T19:13:41.430Z,8.10
2023-04-16T19:18:27.626Z,8.93
2023-04-16T19:23:19.774Z,8.30
2023-04-16T19:28:06.964Z,7.30
2023-04-16T19:32:55.403Z,8.73
2023-04-16T19:37:41.219Z,7.30
2023-04-16T19:43:03.727Z,7.07
2023-04-16T19:47:51.715Z,8.57
2023-04-16T19:52:39.257Z,6.90
2023-04-16T19:57:26.144Z,5.97
2023-04-16T20:02:17.640Z,6.30
2023-04-16T20:07:06.252Z,6.13
2023-04-16T20:12:39.223Z,6.13
2023-04-16T20:17:56.290Z,6.47
2023-04-16T20:23:54.168Z,6.30
2023-04-16T20:29:11.093Z,9.57
2023-04-16T20:34:49.479Z,7.40
2023-04-16T20:53:29.059Z,7.57
2023-04-16T21:05:44.345Z,8.07
2023-04-16T21:16:54.889Z,7.47
2023-04-16T21:22:43.819Z,8.97
2023-04-16T21:33:54.641Z,9.50
2023-04-16T21:46:48.994Z,12.50
2023-04-16T22:05:13.662Z,10.27
2023-04-16T22:10:32.964Z,12.13
2023-04-16T22:15:35.405Z,10.93
2023-04-16T22:21:28.737Z,10.77
2023-04-16T22:27:16.347Z,10.60
2023-04-16T22:32:42.478Z,13.47
2023-04-16T22:37:44.250Z,15.73
2023-04-16T22:42:33.942Z,13.40
2023-04-16T22:48:40.895Z,11.87
2023-04-16T22:54:20.095Z,12.43
2023-04-16T22:59:21.448Z,12.30
2023-04-16T23:10:33.778Z,13.20
2023-04-16T23:21:48.465Z,11.60
2023-04-16T23:34:31.725Z,11.73
2023-04-16T23:39:49.116Z,11.73
2023-04-16T23:51:03.010Z,11.67
